sensor_id;sensor_type;location;lat;lon;timestamp;P1;durP1;ratioP1;P2;durP2;ratioP2
42666;SDS011;28280;49.646;14.130;2023-07-30T00:00:38;2.75;;;1.40;;
42666;SDS011;28280;49.646;14.130;2023-07-30T00:11:13;2.45;;;1.40;;
42666;SDS011;28280;49.646;14.130;2023-07-30T00:21:34;3.35;;;1.52;;
42666;SDS011;28280;49.646;14.130;2023-07-30T00:31:55;2.03;;;1.23;;
42666;SDS011;28280;49.646;14.130;2023-07-30T00:42:17;2.33;;;1.40;;
42666;SDS011;28280;49.646;14.130;2023-07-30T00:52:39;2.08;;;1.30;;
42666;SDS011;28280;49.646;14.130;2023-07-30T01:03:00;1.55;;;1.20;;
42666;SDS011;28280;49.646;14.130;2023-07-30T01:13:22;1.83;;;1.40;;
42666;SDS011;28280;49.646;14.130;2023-07-30T01:23:43;2.90;;;1.40;;
42666;SDS011;28280;49.646;14.130;2023-07-30T01:34:05;2.38;;;1.50;;
42666;SDS011;28280;49.646;14.130;2023-07-30T01:44:28;1.65;;;1.08;;
42666;SDS011;28280;49.646;14.130;2023-07-30T01:54:49;2.00;;;1.48;;
42666;SDS011;28280;49.646;14.130;2023-07-30T02:05:10;2.13;;;1.23;;
42666;SDS011;28280;49.646;14.130;2023-07-30T02:15:39;2.27;;;1.27;;
42666;SDS011;28280;49.646;14.130;2023-07-30T02:26:01;3.22;;;1.60;;
42666;SDS011;28280;49.646;14.130;2023-07-30T02:36:23;4.85;;;1.60;;
42666;SDS011;28280;49.646;14.130;2023-07-30T02:46:44;2.35;;;1.60;;
42666;SDS011;28280;49.646;14.130;2023-07-30T02:57:06;2.50;;;1.80;;
42666;SDS011;28280;49.646;14.130;2023-07-30T03:07:27;2.05;;;1.40;;
42666;SDS011;28280;49.646;14.130;2023-07-30T03:17:49;2.85;;;1.85;;
42666;SDS011;28280;49.646;14.130;2023-07-30T03:28:10;2.22;;;1.80;;
42666;SDS011;28280;49.646;14.130;2023-07-30T03:38:31;2.85;;;1.65;;
42666;SDS011;28280;49.646;14.130;2023-07-30T03:48:52;4.22;;;1.70;;
42666;SDS011;28280;49.646;14.130;2023-07-30T03:59:14;2.17;;;1.60;;
42666;SDS011;28280;49.646;14.130;2023-07-30T04:09:36;2.30;;;1.52;;
42666;SDS011;28280;49.646;14.130;2023-07-30T04:19:58;3.92;;;1.80;;
42666;SDS011;28280;49.646;14.130;2023-07-30T04:30:45;2.50;;;1.50;;
42666;SDS011;28280;49.646;14.130;2023-07-30T04:41:10;3.53;;;1.77;;
42666;SDS011;28280;49.646;14.130;2023-07-30T04:51:37;2.08;;;1.73;;
42666;SDS011;28280;49.646;14.130;2023-07-30T05:02:01;1.73;;;1.33;;
42666;SDS011;28280;49.646;14.130;2023-07-30T05:12:22;2.47;;;1.52;;
42666;SDS011;28280;49.646;14.130;2023-07-30T05:22:44;4.05;;;1.98;;
42666;SDS011;28280;49.646;14.130;2023-07-30T05:33:05;3.45;;;2.28;;
42666;SDS011;28280;49.646;14.130;2023-07-30T05:43:27;4.25;;;2.28;;
42666;SDS011;28280;49.646;14.130;2023-07-30T05:53:48;6.07;;;2.83;;
42666;SDS011;28280;49.646;14.130;2023-07-30T06:04:10;3.97;;;2.17;;
42666;SDS011;28280;49.646;14.130;2023-07-30T06:14:31;8.32;;;2.55;;
42666;SDS011;28280;49.646;14.130;2023-07-30T06:24:52;5.05;;;2.47;;
42666;SDS011;28280;49.646;14.130;2023-07-30T06:35:31;5.10;;;2.20;;
42666;SDS011;28280;49.646;14.130;2023-07-30T06:45:53;4.00;;;2.47;;
42666;SDS011;28280;49.646;14.130;2023-07-30T06:56:15;6.07;;;3.10;;
42666;SDS011;28280;49.646;14.130;2023-07-30T07:06:36;2.95;;;1.67;;
42666;SDS011;28280;49.646;14.130;2023-07-30T07:16:58;3.08;;;1.00;;
42666;SDS011;28280;49.646;14.130;2023-07-30T07:27:19;2.45;;;1.20;;
42666;SDS011;28280;49.646;14.130;2023-07-30T07:37:41;3.67;;;0.90;;
42666;SDS011;28280;49.646;14.130;2023-07-30T07:48:02;1.80;;;0.80;;
42666;SDS011;28280;49.646;14.130;2023-07-30T07:58:24;2.13;;;0.85;;
42666;SDS011;28280;49.646;14.130;2023-07-30T08:08:45;1.65;;;1.05;;
42666;SDS011;28280;49.646;14.130;2023-07-30T08:19:06;3.30;;;1.20;;
42666;SDS011;28280;49.646;14.130;2023-07-30T08:29:29;1.25;;;1.00;;
42666;SDS011;28280;49.646;14.130;2023-07-30T08:39:51;2.28;;;1.10;;
42666;SDS011;28280;49.646;14.130;2023-07-30T08:50:13;2.40;;;1.00;;
42666;SDS011;28280;49.646;14.130;2023-07-30T09:00:36;1.75;;;1.10;;
42666;SDS011;28280;49.646;14.130;2023-07-30T09:11:08;3.45;;;1.50;;
42666;SDS011;28280;49.646;14.130;2023-07-30T09:21:31;4.22;;;1.48;;
42666;SDS011;28280;49.646;14.130;2023-07-30T09:31:54;3.28;;;1.50;;
42666;SDS011;28280;49.646;14.130;2023-07-30T09:42:16;1.80;;;1.45;;
42666;SDS011;28280;49.646;14.130;2023-07-30T09:52:37;1.92;;;1.50;;
42666;SDS011;28280;49.646;14.130;2023-07-30T10:02:59;2.08;;;1.50;;
42666;SDS011;28280;49.646;14.130;2023-07-30T10:13:23;2.17;;;1.70;;
42666;SDS011;28280;49.646;14.130;2023-07-30T10:24:03;2.45;;;1.70;;
42666;SDS011;28280;49.646;14.130;2023-07-30T10:34:26;4.30;;;1.98;;
42666;SDS011;28280;49.646;14.130;2023-07-30T10:44:48;2.10;;;1.80;;
42666;SDS011;28280;49.646;14.130;2023-07-30T10:55:10;3.13;;;1.70;;
42666;SDS011;28280;49.646;14.130;2023-07-30T11:05:31;2.63;;;2.08;;
42666;SDS011;28280;49.646;14.130;2023-07-30T11:15:53;3.85;;;1.70;;
42666;SDS011;28280;49.646;14.130;2023-07-30T11:26:16;4.18;;;1.70;;
42666;SDS011;28280;49.646;14.130;2023-07-30T11:36:40;2.08;;;1.60;;
42666;SDS011;28280;49.646;14.130;2023-07-30T11:47:01;2.35;;;1.63;;
42666;SDS011;28280;49.646;14.130;2023-07-30T11:57:32;4.22;;;1.67;;
42666;SDS011;28280;49.646;14.130;2023-07-30T12:07:56;2.95;;;1.55;;
42666;SDS011;28280;49.646;14.130;2023-07-30T12:18:19;1.40;;;1.30;;
42666;SDS011;28280;49.646;14.130;2023-07-30T12:28:41;2.45;;;1.60;;
42666;SDS011;28280;49.646;14.130;2023-07-30T12:39:03;3.97;;;1.38;;
42666;SDS011;28280;49.646;14.130;2023-07-30T12:49:38;2.88;;;1.88;;
42666;SDS011;28280;49.646;14.130;2023-07-30T13:00:00;3.08;;;1.73;;
42666;SDS011;28280;49.646;14.130;2023-07-30T13:10:24;2.97;;;1.67;;
42666;SDS011;28280;49.646;14.130;2023-07-30T13:20:45;4.10;;;1.48;;
42666;SDS011;28280;49.646;14.130;2023-07-30T13:31:06;5.85;;;1.50;;
42666;SDS011;28280;49.646;14.130;2023-07-30T13:41:28;19.90;;;5.97;;
42666;SDS011;28280;49.646;14.130;2023-07-30T13:51:50;124.63;;;38.35;;
42666;SDS011;28280;49.646;14.130;2023-07-30T14:02:11;124.53;;;41.35;;
42666;SDS011;28280;49.646;14.130;2023-07-30T14:12:33;108.70;;;36.15;;
42666;SDS011;28280;49.646;14.130;2023-07-30T14:22:55;75.75;;;27.88;;
42666;SDS011;28280;49.646;14.130;2023-07-30T14:33:33;69.38;;;23.63;;
42666;SDS011;28280;49.646;14.130;2023-07-30T14:43:55;42.45;;;15.75;;
42666;SDS011;28280;49.646;14.130;2023-07-30T14:54:16;38.70;;;13.82;;
42666;SDS011;28280;49.646;14.130;2023-07-30T15:04:39;32.65;;;12.90;;
42666;SDS011;28280;49.646;14.130;2023-07-30T15:15:00;31.35;;;11.48;;
42666;SDS011;28280;49.646;14.130;2023-07-30T15:25:22;20.02;;;7.63;;
42666;SDS011;28280;49.646;14.130;2023-07-30T15:35:43;16.75;;;7.15;;
42666;SDS011;28280;49.646;14.130;2023-07-30T15:46:06;13.52;;;6.45;;
42666;SDS011;28280;49.646;14.130;2023-07-30T15:56:28;14.83;;;5.63;;
42666;SDS011;28280;49.646;14.130;2023-07-30T16:06:50;14.02;;;4.95;;
42666;SDS011;28280;49.646;14.130;2023-07-30T16:17:11;10.93;;;4.35;;
42666;SDS011;28280;49.646;14.130;2023-07-30T16:27:36;8.50;;;4.13;;
42666;SDS011;28280;49.646;14.130;2023-07-30T16:37:57;5.80;;;1.70;;
42666;SDS011;28280;49.646;14.130;2023-07-30T16:48:19;2.38;;;1.50;;
42666;SDS011;28280;49.646;14.130;2023-07-30T16:58:40;3.75;;;1.63;;
42666;SDS011;28280;49.646;14.130;2023-07-30T17:09:02;2.72;;;1.70;;
42666;SDS011;28280;49.646;14.130;2023-07-30T17:19:25;3.47;;;1.73;;
42666;SDS011;28280;49.646;14.130;2023-07-30T17:29:46;2.97;;;1.70;;
42666;SDS011;28280;49.646;14.130;2023-07-30T17:40:08;5.10;;;1.85;;
42666;SDS011;28280;49.646;14.130;2023-07-30T17:50:31;6.68;;;2.50;;
42666;SDS011;28280;49.646;14.130;2023-07-30T18:00:53;4.57;;;1.90;;
42666;SDS011;28280;49.646;14.130;2023-07-30T18:11:16;3.25;;;1.55;;
42666;SDS011;28280;49.646;14.130;2023-07-30T18:21:38;2.35;;;1.63;;
42666;SDS011;28280;49.646;14.130;2023-07-30T18:32:06;2.67;;;1.70;;
42666;SDS011;28280;49.646;14.130;2023-07-30T18:42:29;3.05;;;2.00;;
42666;SDS011;28280;49.646;14.130;2023-07-30T18:52:51;2.47;;;1.63;;
42666;SDS011;28280;49.646;14.130;2023-07-30T19:03:19;2.25;;;1.45;;
42666;SDS011;28280;49.646;14.130;2023-07-30T19:13:41;2.72;;;1.80;;
42666;SDS011;28280;49.646;14.130;2023-07-30T19:24:04;2.40;;;1.38;;
42666;SDS011;28280;49.646;14.130;2023-07-30T19:34:26;2.25;;;1.40;;
42666;SDS011;28280;49.646;14.130;2023-07-30T19:44:47;1.67;;;1.35;;
42666;SDS011;28280;49.646;14.130;2023-07-30T19:55:09;2.38;;;1.70;;
42666;SDS011;28280;49.646;14.130;2023-07-30T20:05:32;2.15;;;1.50;;
42666;SDS011;28280;49.646;14.130;2023-07-30T20:15:54;4.53;;;1.50;;
42666;SDS011;28280;49.646;14.130;2023-07-30T20:26:17;2.33;;;1.40;;
42666;SDS011;28280;49.646;14.130;2023-07-30T20:36:38;3.92;;;1.70;;
42666;SDS011;28280;49.646;14.130;2023-07-30T20:47:00;2.08;;;1.20;;
42666;SDS011;28280;49.646;14.130;2023-07-30T20:57:22;1.58;;;1.30;;
42666;SDS011;28280;49.646;14.130;2023-07-30T21:07:43;2.05;;;1.40;;
42666;SDS011;28280;49.646;14.130;2023-07-30T21:18:04;2.08;;;1.50;;
42666;SDS011;28280;49.646;14.130;2023-07-30T21:28:27;2.85;;;1.40;;
42666;SDS011;28280;49.646;14.130;2023-07-30T21:38:49;1.92;;;1.38;;
42666;SDS011;28280;49.646;14.130;2023-07-30T21:49:10;1.83;;;1.40;;
42666;SDS011;28280;49.646;14.130;2023-07-30T21:59:31;5.85;;;1.35;;
42666;SDS011;28280;49.646;14.130;2023-07-30T22:09:52;3.80;;;1.48;;
42666;SDS011;28280;49.646;14.130;2023-07-30T22:20:14;2.30;;;1.45;;
42666;SDS011;28280;49.646;14.130;2023-07-30T22:30:38;3.65;;;1.40;;
42666;SDS011;28280;49.646;14.130;2023-07-30T22:41:01;1.98;;;1.30;;
42666;SDS011;28280;49.646;14.130;2023-07-30T22:51:22;2.53;;;1.50;;
42666;SDS011;28280;49.646;14.130;2023-07-30T23:01:43;2.20;;;1.25;;
42666;SDS011;28280;49.646;14.130;2023-07-30T23:12:06;1.95;;;1.42;;
42666;SDS011;28280;49.646;14.130;2023-07-30T23:22:27;3.30;;;1.40;;
42666;SDS011;28280;49.646;14.130;2023-07-30T23:32:49;3.17;;;1.20;;
42666;SDS011;28280;49.646;14.130;2023-07-30T23:43:10;2.83;;;1.35;;
42666;SDS011;28280;49.646;14.130;2023-07-30T23:53:32;3.33;;;1.35;;
